Belleair, FL (33756)

5:00 PM EDT on September 04, 2015 (GMT -0400)
South Greenwood | | Change Station
CLOSE
Current Station
Personal Weather Station
Location: Clearwater, FL
Elevation: 40 ft
Nearby Weather Stations

Elev 40 ft 27.94 °N, 82.79 °W | Updated 31 seconds ago

Clear
Clear
93.2 °F
Feels Like 109 °F
N
5.0
Wind Variable Wind from West
Gusts 8.0 mph

Today
High -- | Low -- °F
--% Chance of Precip.
Yesterday
High -- | Low -- °F
Precip. -- in
7:11 AM 7:48 PM
Waning Gibbous, 56% visible
Pressure 29.95 in
Visibility 10.0 miles
Clouds Scattered Clouds 3800 ft
Heat Index 109 °F
Dew Point 78 °F
Humidity 62%
Rainfall 0.00 in
Snow Depth Not available.
UV 5 out of 12
Pollen 4.30 out of 12
Air Quality Not available.
Flu Activity Not available.
METAR KPIE 042053Z 32005KT 10SM VCTS SCT038 32/23 A2995 RMK AO2 LTG DSNT E AND SE TSE08B24E39 SLP140 T03170233 55002
Pressure 29.95 in
Visibility 10.0 miles
Clouds Scattered Clouds 3800 ft
Heat Index 109 °F
Dew Point 78 °F
Humidity 62%
Rainfall 0.00 in
Snow Depth Not available.
UV 5 out of 12
Pollen 4.30 out of 12
Air Quality Not available.
Flu Activity Not available.
METAR KPIE 042053Z 32005KT 10SM VCTS SCT038 32/23 A2995 RMK AO2 LTG DSNT E AND SE TSE08B24E39 SLP140 T03170233 55002

10-Day Weather Forecast

×

Almanac

Astronomy

Sep. 04, 2015 Rise Set
Actual Time
Civil Twilight
Nautical Twilight
Astronomical Twilight
Moon
Length of Visible Light
Length of Day
Tomorrow will be .
, % of the Moon is Illuminated

Today's Extremes

State Highs State Lows

Community

WunderPhotos

Upload Photos

1,852,290 photos uploaded!

WunderBlogs® & News

Nearby

Air Quality

  Air Quality AQ Index Pollutant
Not available.

Snow Depth

Station Depth Elevation

Earthquake Activity

City Distance Mag. Time & Date
Minimum magnitude displayed is 2.5.

Coastal Water Temperatures

Place Temperature

Stations

Nearby Weather Stations

Station Location Temp. Windchill Dew Point Humidity Wind Precip. Elev Updated Type